Time;durP1;ratioP1;P1;durP2;ratioP2;P2;SDS_P1;SDS_P2;PMS_P1;PMS_P2;Temp;Humidity;BMP_temperature;BMP_pressure;BME280_temperature;BME280_humidity;BME280_pressure;Samples;Min_cycle;Max_cycle;Signal;HPM_P1;HPM_P2
2022/01/29 00:00:59;;;;;;;12.82;5.15;;;;;;;3.91;91.15;102050.66;4933236;29;20198;-45
2022/01/29 00:03:30;;;;;;;20.02;5.30;;;;;;;3.87;91.33;102032.94;4933125;29;20571;-44
2022/01/29 00:05:57;;;;;;;29.48;7.18;;;;;;;3.90;91.38;102025.91;4933542;29;20538;-46
2022/01/29 00:08:23;;;;;;;16.75;6.05;;;;;;;3.94;91.68;102016.22;4933303;29;20617;-42
2022/01/29 00:10:53;;;;;;;15.00;5.80;;;;;;;3.97;91.92;102008.28;4933717;29;20230;-41
2022/01/29 00:13:19;;;;;;;16.17;6.28;;;;;;;4.01;92.27;101986.22;4933135;29;20172;-40
2022/01/29 00:15:44;;;;;;;15.23;6.68;;;;;;;3.92;93.00;101996.78;4933421;29;20175;-41
2022/01/29 00:18:10;;;;;;;20.38;7.18;;;;;;;3.84;94.19;101993.16;4933420;29;20183;-43
2022/01/29 00:20:35;;;;;;;20.33;8.02;;;;;;;3.86;95.20;101983.47;4933389;29;20171;-41
2022/01/29 00:23:00;;;;;;;21.73;8.35;;;;;;;3.81;96.03;101980.78;4931986;29;20222;-41
2022/01/29 00:25:26;;;;;;;22.50;7.93;;;;;;;3.77;96.82;101975.44;4932931;29;20664;-41
2022/01/29 00:27:53;;;;;;;24.60;9.73;;;;;;;3.70;97.72;101969.19;4933493;29;20203;-43
2022/01/29 00:30:19;;;;;;;22.95;8.35;;;;;;;3.74;98.24;101973.66;4916028;29;20180;-40
2022/01/29 00:32:45;;;;;;;30.70;9.98;;;;;;;3.67;99.15;101966.50;4932916;29;20178;-43
2022/01/29 00:35:10;;;;;;;27.65;9.98;;;;;;;3.68;99.67;101957.69;4932958;29;20191;-42
2022/01/29 00:37:36;;;;;;;29.55;11.25;;;;;;;3.59;100.00;101958.50;4933159;29;20287;-40
2022/01/29 00:40:03;;;;;;;22.05;10.60;;;;;;;3.69;100.00;101954.16;4933849;29;20179;-42
2022/01/29 00:42:29;;;;;;;25.02;11.25;;;;;;;3.59;100.00;101947.91;4932883;29;20305;-41
2022/01/29 00:44:54;;;;;;;23.15;11.25;;;;;;;3.59;100.00;101947.91;4932693;29;20223;-42
2022/01/29 00:47:20;;;;;;;29.67;12.20;;;;;;;3.54;100.00;101941.66;4933361;29;20695;-42
2022/01/29 00:49:45;;;;;;;25.88;13.15;;;;;;;3.63;100.00;101928.50;4932968;29;20179;-40
2022/01/29 00:52:11;;;;;;;27.98;14.02;;;;;;;3.56;100.00;101926.66;4933120;29;20547;-42
2022/01/29 00:54:37;;;;;;;27.75;13.48;;;;;;;3.59;100.00;101926.72;4932703;29;20203;-42
2022/01/29 00:57:03;;;;;;;27.88;14.52;;;;;;;3.60;100.00;101923.16;4933114;29;20206;-41
2022/01/29 00:59:28;;;;;;;28.85;15.60;;;;;;;3.61;100.00;101930.25;4931336;29;20720;-44
2022/01/29 01:01:54;;;;;;;26.98;14.95;;;;;;;3.64;100.00;101929.41;4932921;29;20277;-44
2022/01/29 01:04:19;;;;;;;29.42;15.00;;;;;;;3.63;100.00;101917.91;4931646;29;20311;-45
2022/01/29 01:06:44;;;;;;;28.77;17.05;;;;;;;3.64;100.00;101918.78;4932889;29;20199;-42
2022/01/29 01:09:10;;;;;;;27.88;16.15;;;;;;;3.80;100.00;101901.22;4932911;29;20187;-42
2022/01/29 01:11:35;;;;;;;34.70;16.65;;;;;;;3.71;100.00;101902.06;4932990;29;20585;-43
2022/01/29 01:14:01;;;;;;;34.35;16.75;;;;;;;3.72;100.00;101901.19;4932359;29;20183;-44
2022/01/29 01:16:26;;;;;;;30.92;18.40;;;;;;;3.70;100.00;101895.88;4932850;29;20226;-43
2022/01/29 01:18:52;;;;;;;34.42;18.60;;;;;;;3.74;100.00;101883.53;4933638;29;20664;-45
2022/01/29 01:21:17;;;;;;;27.65;18.05;;;;;;;3.83;100.00;101870.34;4936209;29;20168;-45
2022/01/29 01:23:42;;;;;;;38.53;20.02;;;;;;;3.78;100.00;101869.41;4936105;29;20576;-44
2022/01/29 01:26:08;;;;;;;37.03;20.95;;;;;;;3.79;100.00;101855.28;4935935;29;20222;-44
2022/01/29 01:28:33;;;;;;;34.10;20.60;;;;;;;3.83;100.00;101858.84;4936235;29;20187;-46
2022/01/29 01:31:00;;;;;;;30.40;19.98;;;;;;;3.83;100.00;101845.59;4934983;29;20266;-45
2022/01/29 01:33:25;;;;;;;34.85;19.90;;;;;;;3.85;100.00;101835.91;4935597;29;20220;-42
2022/01/29 01:35:55;;;;;;;33.90;21.05;;;;;;;3.86;100.00;101824.41;4936278;29;20219;-41
2022/01/29 01:38:31;;;;;;;36.47;22.08;;;;;;;3.88;100.00;101822.66;4934612;29;20348;-43
2022/01/29 01:41:02;;;;;;;31.38;20.77;;;;;;;3.91;100.00;101807.66;4935000;29;20274;-45
2022/01/29 01:43:28;;;;;;;36.47;22.27;;;;;;;3.93;100.00;101804.97;4935255;29;20649;-48
2022/01/29 01:45:53;;;;;;;34.92;21.55;;;;;;;3.90;100.00;101787.31;4935863;29;20401;-48
2022/01/29 01:48:19;;;;;;;37.05;21.77;;;;;;;3.96;100.00;101772.28;4935816;29;20482;-48
2022/01/29 01:50:44;;;;;;;35.03;22.10;;;;;;;4.01;100.00;101768.78;4934285;29;20183;-45
2022/01/29 01:53:10;;;;;;;32.65;21.98;;;;;;;4.10;100.00;101765.28;4935807;29;20327;-45
2022/01/29 01:55:37;;;;;;;32.55;21.45;;;;;;;4.02;100.00;101757.28;4933961;29;20183;-44
2022/01/29 01:58:02;;;;;;;30.13;22.60;;;;;;;4.06;100.00;101751.13;4935521;29;20294;-46
2022/01/29 02:00:29;;;;;;;33.63;23.40;;;;;;;4.11;100.00;101752.03;4935644;29;20226;-49
2022/01/29 02:02:55;;;;;;;36.13;22.77;;;;;;;4.08;100.00;101741.41;4934013;29;20648;-47
2022/01/29 02:05:21;;;;;;;35.72;22.88;;;;;;;4.17;100.00;101729.06;4935065;29;20172;-47
2022/01/29 02:07:46;;;;;;;31.13;22.13;;;;;;;4.10;100.00;101734.34;4935369;29;20206;-47
2022/01/29 02:10:13;;;;;;;36.60;22.92;;;;;;;4.13;100.00;101723.75;4935421;29;20183;-45
2022/01/29 02:13:01;;;;;;;31.15;20.77;;;;;;;4.16;100.00;101706.09;4935547;29;20196;-46
2022/01/29 02:15:27;;;;;;;29.63;22.20;;;;;;;4.14;100.00;101711.38;4934737;29;20773;-49
2022/01/29 02:17:53;;;;;;;33.85;21.55;;;;;;;4.18;100.00;101709.63;4935394;29;20762;-44
2022/01/29 02:20:21;;;;;;;30.50;20.88;;;;;;;4.24;100.00;101712.28;4935173;29;20231;-47
2022/01/29 02:22:47;;;;;;;28.48;21.38;;;;;;;4.22;100.00;101696.38;4934997;29;20726;-46
2022/01/29 02:25:41;;;;;;;34.17;20.58;;;;;;;4.24;100.00;101701.66;4934464;29;20532;-46
2022/01/29 02:28:15;;;;;;;28.10;19.40;;;;;;;4.26;100.00;101682.25;4934441;29;20339;-47
2022/01/29 02:30:43;;;;;;;29.48;20.80;;;;;;;4.32;100.00;101681.34;4934262;29;20187;-46
2022/01/29 02:33:12;;;;;;;29.52;20.27;;;;;;;4.33;100.00;101672.53;4934079;29;20180;-46
2022/01/29 02:35:48;;;;;;;30.00;19.55;;;;;;;4.30;100.00;101649.50;4934108;29;20174;-45
2022/01/29 02:38:16;;;;;;;27.30;20.02;;;;;;;4.33;100.00;101651.31;4934272;29;20211;-43
2022/01/29 02:43:26;;;;;;;25.63;19.38;;;;;;;4.44;100.00;101628.31;4934225;29;20238;-53
2022/01/29 02:45:53;;;;;;;26.92;20.08;;;;;;;4.37;100.00;101631.81;4933989;29;20183;-47
2022/01/29 02:48:20;;;;;;;25.38;19.35;;;;;;;4.44;100.00;101623.00;4934120;29;20214;-46
2022/01/29 02:50:46;;;;;;;26.50;19.38;;;;;;;4.44;100.00;101607.06;4933881;29;20231;-46
2022/01/29 02:53:11;;;;;;;22.77;18.10;;;;;;;4.43;100.00;101599.13;4933010;29;20172;-47
2022/01/29 02:55:37;;;;;;;22.38;16.85;;;;;;;4.51;100.00;101582.31;4929503;29;20638;-46
2022/01/29 02:58:02;;;;;;;26.55;17.67;;;;;;;4.52;100.00;101577.88;4943637;28;20203;-45
2022/01/29 03:00:28;;;;;;;23.65;17.50;;;;;;;4.52;100.00;101554.88;4951964;29;20659;-50
2022/01/29 03:02:54;;;;;;;19.70;16.40;;;;;;;4.53;100.00;101554.00;4952819;28;20248;-48
2022/01/29 03:05:19;;;;;;;21.83;17.23;;;;;;;4.55;100.00;101556.66;4937228;28;20230;-46
2022/01/29 03:07:45;;;;;;;24.02;16.25;;;;;;;4.59;100.00;101550.47;4930360;28;20301;-46
2022/01/29 03:10:11;;;;;;;19.88;15.93;;;;;;;4.63;100.00;101548.66;4952580;29;20869;-48
2022/01/29 03:12:40;;;;;;;21.35;15.43;;;;;;;4.71;100.00;101541.56;4952747;28;20317;-43
2022/01/29 03:15:08;;;;;;;19.25;15.07;;;;;;;4.70;100.00;101547.75;4952084;28;20170;-42
2022/01/29 03:17:33;;;;;;;17.65;14.65;;;;;;;4.72;100.00;101551.28;4952630;28;20199;-43
2022/01/29 03:19:59;;;;;;;18.05;14.40;;;;;;;4.72;100.00;101538.00;4952616;28;20640;-42
2022/01/29 03:22:24;;;;;;;17.55;13.73;;;;;;;4.78;100.00;101515.88;4951796;28;20203;-42
2022/01/29 03:24:50;;;;;;;17.27;14.23;;;;;;;4.77;100.00;101508.78;4950842;28;20174;-42
2022/01/29 03:27:15;;;;;;;18.45;14.65;;;;;;;4.83;100.00;101508.78;4952205;28;20233;-43
2022/01/29 03:29:41;;;;;;;18.45;14.20;;;;;;;4.83;100.00;101499.06;4952927;28;20191;-43
2022/01/29 03:32:07;;;;;;;19.30;14.43;;;;;;;4.88;100.00;101484.00;4952578;28;20662;-43
2022/01/29 03:34:32;;;;;;;19.83;13.57;;;;;;;4.93;100.00;101490.16;4952542;28;20175;-41
2022/01/29 03:36:58;;;;;;;17.38;13.27;;;;;;;4.93;100.00;101483.97;4952114;28;20310;-41
2022/01/29 03:39:26;;;;;;;20.38;14.18;;;;;;;4.98;100.00;101482.16;4952989;28;20177;-42
2022/01/29 03:41:52;;;;;;;15.70;13.43;;;;;;;5.04;100.00;101482.16;4951611;28;20221;-43
2022/01/29 03:44:18;;;;;;;15.40;12.45;;;;;;;5.03;100.00;101461.81;4952063;28;20190;-44
2022/01/29 03:46:45;;;;;;;19.83;13.18;;;;;;;5.07;100.00;101481.25;4952372;28;20199;-44
2022/01/29 03:49:11;;;;;;;21.23;13.52;;;;;;;5.12;100.00;101474.16;4952244;28;20606;-43
2022/01/29 03:51:36;;;;;;;19.98;15.07;;;;;;;5.16;100.00;101466.16;4952423;28;20186;-45
2022/01/29 03:54:02;;;;;;;18.92;13.95;;;;;;;5.15;100.00;101459.06;4950681;29;20217;-45
2022/01/29 03:56:27;;;;;;;22.55;15.32;;;;;;;5.27;100.00;101451.91;4952181;28;20199;-43
2022/01/29 03:58:52;;;;;;;20.25;15.50;;;;;;;5.24;100.00;101441.31;4940110;28;20202;-43
2022/01/29 04:01:18;;;;;;;20.60;16.05;;;;;;;5.28;100.00;101441.28;4932676;29;20178;-42
2022/01/29 04:03:43;;;;;;;19.95;16.20;;;;;;;5.28;100.00;101443.06;4932847;29;20243;-40
2022/01/29 04:06:09;;;;;;;24.63;15.88;;;;;;;5.32;100.00;101440.38;4932632;29;20180;-42
2022/01/29 04:08:40;;;;;;;26.88;16.55;;;;;;;5.27;100.00;101444.84;4933044;29;20269;-43
2022/01/29 04:11:07;;;;;;;27.65;16.80;;;;;;;5.32;100.00;101445.69;4932642;29;20182;-40
2022/01/29 04:13:33;;;;;;;25.55;17.13;;;;;;;5.34;100.00;101443.91;4932627;29;20179;-42
2022/01/29 04:15:58;;;;;;;26.25;17.85;;;;;;;5.40;100.00;101450.03;4933260;29;20614;-41
2022/01/29 04:18:23;;;;;;;24.63;17.80;;;;;;;5.39;100.00;101432.34;4932786;29;20226;-44
2022/01/29 04:20:49;;;;;;;25.42;16.80;;;;;;;5.39;100.00;101425.25;4932931;29;20272;-43
2022/01/29 04:23:14;;;;;;;25.88;17.25;;;;;;;5.40;100.00;101420.81;4932560;29;20640;-42
2022/01/29 04:25:40;;;;;;;22.40;16.02;;;;;;;5.43;100.00;101412.84;4932463;29;20570;-44
2022/01/29 04:28:06;;;;;;;25.10;16.42;;;;;;;5.39;100.00;101405.78;4932750;29;20501;-45
2022/01/29 04:30:41;;;;;;;21.08;15.55;;;;;;;5.41;100.00;101377.44;4932867;29;20179;-42
2022/01/29 04:35:41;;;;;;;19.50;14.02;;;;;;;5.41;100.00;101382.75;4932451;29;20167;-40
2022/01/29 04:38:07;;;;;;;19.30;13.70;;;;;;;5.45;100.00;101376.50;4932828;29;20680;-40
2022/01/29 04:40:35;;;;;;;21.33;14.57;;;;;;;5.43;100.00;101371.19;4932701;29;20168;-42
2022/01/29 04:43:01;;;;;;;21.30;13.70;;;;;;;5.43;100.00;101370.31;4933018;29;20805;-43
2022/01/29 04:45:26;;;;;;;21.92;13.25;;;;;;;5.47;100.00;101351.69;4932053;29;20262;-43
2022/01/29 04:47:52;;;;;;;17.13;12.45;;;;;;;5.44;100.00;101357.00;4932406;29;20207;-42
2022/01/29 04:50:17;;;;;;;16.60;12.25;;;;;;;5.49;100.00;101349.03;4932091;29;20179;-41
2022/01/29 04:52:42;;;;;;;17.23;12.10;;;;;;;5.53;100.00;101342.75;4932976;29;20172;-41
2022/01/29 04:55:09;;;;;;;16.15;11.57;;;;;;;5.56;100.00;101334.78;4935770;29;20279;-43
2022/01/29 04:57:37;;;;;;;15.35;10.93;;;;;;;5.49;100.00;101333.06;4933349;28;20261;-40
2022/01/29 05:00:07;;;;;;;16.23;11.00;;;;;;;5.52;100.00;101330.38;4952010;29;20636;-42
2022/01/29 05:02:33;;;;;;;18.17;11.45;;;;;;;5.55;100.00;101322.34;4954800;28;20206;-43
2022/01/29 05:04:58;;;;;;;12.35;10.32;;;;;;;5.55;100.00;101333.00;4954992;28;20183;-43
2022/01/29 05:07:24;;;;;;;15.27;10.52;;;;;;;5.51;100.00;101317.97;4954984;28;20566;-44
2022/01/29 05:09:49;;;;;;;12.23;9.77;;;;;;;5.53;100.00;101325.06;4934349;28;20671;-43
2022/01/29 05:12:20;;;;;;;15.38;10.00;;;;;;;5.54;100.00;101308.19;4947948;29;20183;-42
2022/01/29 05:15:04;;;;;;;12.35;10.10;;;;;;;5.56;100.00;101310.84;4954723;28;20308;-42
2022/01/29 05:28:25;;;;;;;22.63;12.63;;;;;;;5.73;100.00;101269.03;4955021;28;20186;-44
2022/01/29 05:30:51;;;;;;;21.80;14.30;;;;;;;5.71;100.00;101267.28;4954680;28;20186;-43
2022/01/29 05:33:16;;;;;;;24.83;14.38;;;;;;;5.69;100.00;101258.44;4954836;28;20179;-43
2022/01/29 05:35:41;;;;;;;27.63;14.63;;;;;;;5.74;100.00;101248.63;4952750;29;20262;-42
2022/01/29 05:38:07;;;;;;;26.05;15.77;;;;;;;5.72;100.00;101248.63;4954384;28;20201;-39
2022/01/29 05:40:32;;;;;;;27.95;15.23;;;;;;;5.76;100.00;101229.09;4954784;29;20168;-42
2022/01/29 05:42:57;;;;;;;29.00;16.75;;;;;;;5.82;100.00;101243.22;4954840;28;20198;-42
2022/01/29 05:45:23;;;;;;;29.15;16.00;;;;;;;5.81;100.00;101263.59;4954295;28;20261;-43
2022/01/29 05:47:48;;;;;;;32.95;16.15;;;;;;;5.78;100.00;101253.88;4954317;28;20260;-44
2022/01/29 05:50:13;;;;;;;32.25;17.02;;;;;;;5.82;100.00;101253.88;4954508;29;20179;-40
2022/01/29 05:52:39;;;;;;;33.50;17.20;;;;;;;5.92;100.00;101240.41;4954085;28;20186;-42
2022/01/29 05:55:05;;;;;;;34.38;17.13;;;;;;;5.86;100.00;101236.94;4954229;28;20178;-42
2022/01/29 05:57:30;;;;;;;38.83;17.30;;;;;;;5.86;100.00;101223.66;4952650;28;20198;-43
2022/01/29 05:59:55;;;;;;;37.72;18.15;;;;;;;5.88;100.00;101225.41;4935279;29;20649;-42
2022/01/29 06:02:21;;;;;;;37.97;17.33;;;;;;;5.95;100.00;101219.16;4935176;29;20221;-41
2022/01/29 06:04:46;;;;;;;36.78;17.52;;;;;;;5.93;100.00;101212.06;4933862;29;20178;-41
2022/01/29 06:07:11;;;;;;;37.58;19.13;;;;;;;6.00;100.00;101213.78;4934776;29;20195;-41
2022/01/29 06:09:37;;;;;;;40.05;17.50;;;;;;;6.02;100.00;101206.66;4935167;29;20274;-42
2022/01/29 06:12:02;;;;;;;41.72;18.80;;;;;;;6.04;100.00;101207.50;4934846;29;20168;-40
2022/01/29 06:14:28;;;;;;;33.40;18.45;;;;;;;6.01;100.00;101194.22;4934650;29;20178;-43
2022/01/29 06:16:53;;;;;;;41.35;18.55;;;;;;;6.05;100.00;101185.31;4934625;29;20207;-42
2022/01/29 06:19:19;;;;;;;47.13;20.70;;;;;;;6.08;100.00;101173.75;4934930;29;20175;-43
2022/01/29 06:21:44;;;;;;;56.55;21.95;;;;;;;6.11;100.00;101190.56;4934109;29;20295;-42
2022/01/29 06:24:09;;;;;;;55.40;22.48;;;;;;;6.09;100.00;101170.19;4935216;29;20164;-43
2022/01/29 06:26:35;;;;;;;67.50;24.77;;;;;;;6.04;100.00;101170.28;4934360;29;20187;-41
2022/01/29 06:29:01;;;;;;;61.65;24.35;;;;;;;6.06;100.00;101180.91;4934765;29;20611;-46
2022/01/29 06:31:27;;;;;;;61.85;24.67;;;;;;;6.12;100.00;101179.03;4934429;29;20172;-41
2022/01/29 06:33:52;;;;;;;63.78;26.17;;;;;;;6.13;100.00;101175.44;4934251;29;20168;-43
2022/01/29 06:36:18;;;;;;;58.42;23.52;;;;;;;6.08;100.00;101171.09;4933992;29;20172;-43
2022/01/29 06:38:43;;;;;;;58.22;24.17;;;;;;;6.13;100.00;101201.19;4933992;29;20166;-42
2022/01/29 06:41:09;;;;;;;54.85;25.05;;;;;;;6.17;100.00;101189.59;4934142;29;20179;-43
2022/01/29 06:43:34;;;;;;;58.38;24.88;;;;;;;6.11;100.00;101187.91;4933640;29;20688;-45
2022/01/29 06:46:00;;;;;;;56.40;24.33;;;;;;;6.21;100.00;101191.31;4934263;29;20193;-41
2022/01/29 06:48:25;;;;;;;64.85;24.33;;;;;;;6.16;100.00;101170.06;4933657;29;20215;-40
2022/01/29 06:50:51;;;;;;;60.50;25.60;;;;;;;6.19;100.00;101175.38;4934180;29;20234;-42
2022/01/29 06:53:16;;;;;;;58.75;23.85;;;;;;;6.21;100.00;101155.84;4933926;29;20186;-44
2022/01/29 06:55:42;;;;;;;57.75;24.42;;;;;;;6.18;100.00;101160.28;4933747;29;20179;-40
2022/01/29 06:58:07;;;;;;;53.33;24.08;;;;;;;6.18;100.00;101146.13;4933956;29;20237;-47
2022/01/29 07:00:33;;;;;;;64.75;25.08;;;;;;;6.17;100.00;101158.56;4933761;29;20191;-46
2022/01/29 07:02:58;;;;;;;58.03;22.92;;;;;;;6.18;100.00;101156.75;4933936;29;20242;-48
2022/01/29 07:05:23;;;;;;;73.60;24.58;;;;;;;6.16;100.00;101155.91;4933214;29;20171;-45
2022/01/29 07:07:49;;;;;;;71.97;26.38;;;;;;;6.19;100.00;101132.81;4933781;29;20727;-46
2022/01/29 07:10:14;;;;;;;61.38;25.88;;;;;;;6.28;100.00;101133.56;4934086;29;20171;-49
2022/01/29 07:12:40;;;;;;;59.22;24.33;;;;;;;6.24;100.00;101134.53;4933620;29;20258;-47
2022/01/29 07:15:07;;;;;;;64.40;25.85;;;;;;;6.21;100.00;101130.13;4931740;29;20183;-46
2022/01/29 07:17:33;;;;;;;76.60;26.20;;;;;;;6.23;100.00;101140.72;4929565;29;20541;-47
2022/01/29 07:19:59;;;;;;;68.00;26.42;;;;;;;6.23;100.00;101128.31;4934332;29;20225;-44
2022/01/29 07:22:26;;;;;;;65.65;26.10;;;;;;;6.31;100.00;101125.53;4951279;29;20246;-47
2022/01/29 07:24:51;;;;;;;58.63;24.63;;;;;;;6.26;100.00;101124.72;4952428;28;20179;-46
2022/01/29 07:27:16;;;;;;;54.63;23.58;;;;;;;6.25;100.00;101114.97;4952530;28;20234;-48
2022/01/29 07:29:42;;;;;;;59.22;24.10;;;;;;;6.19;100.00;101108.84;4952256;28;20746;-47
2022/01/29 07:32:08;;;;;;;60.83;23.75;;;;;;;6.23;100.00;101115.03;4952118;28;20168;-46
2022/01/29 07:34:34;;;;;;;65.55;24.25;;;;;;;6.26;100.00;101112.31;4951683;28;20183;-45
2022/01/29 07:36:59;;;;;;;61.35;24.65;;;;;;;6.21;100.00;101115.94;4947363;28;20658;-48
2022/01/29 07:39:26;;;;;;;52.63;23.88;;;;;;;6.22;100.00;101118.56;4933089;29;20163;-49
2022/01/29 07:41:55;;;;;;;53.78;23.05;;;;;;;6.22;100.00;101110.59;4932458;29;20303;-46
2022/01/29 07:44:22;;;;;;;54.75;23.13;;;;;;;6.27;100.00;101102.53;4929125;29;20187;-49
2022/01/29 07:46:48;;;;;;;54.58;23.70;;;;;;;6.22;100.00;101089.31;4932780;29;20195;-47
2022/01/29 07:49:13;;;;;;;53.03;22.60;;;;;;;6.30;100.00;101091.84;4932365;29;20183;-47
2022/01/29 07:51:39;;;;;;;47.75;21.77;;;;;;;6.27;100.00;101084.78;4932740;29;20234;-44
2022/01/29 07:54:05;;;;;;;46.40;21.63;;;;;;;6.28;100.00;101091.88;4931813;29;20175;-46
2022/01/29 07:56:31;;;;;;;50.10;22.67;;;;;;;6.24;100.00;101091.94;4947550;28;20206;-49
2022/01/29 07:58:56;;;;;;;49.55;21.10;;;;;;;6.27;100.00;101083.91;4938997;28;20171;-46
2022/01/29 08:01:22;;;;;;;42.00;21.52;;;;;;;6.34;100.00;101081.13;4932503;29;20235;-48
2022/01/29 08:03:49;;;;;;;44.03;21.17;;;;;;;6.29;100.00;101068.78;4930780;29;20251;-46
2022/01/29 08:06:16;;;;;;;51.13;21.92;;;;;;;6.29;100.00;101074.13;4937251;29;20226;-45
2022/01/29 08:08:41;;;;;;;39.75;20.80;;;;;;;6.32;100.00;101080.28;4926009;29;20247;-47
2022/01/29 08:11:08;;;;;;;47.47;21.67;;;;;;;6.29;100.00;101067.00;4919540;29;20645;-44
2022/01/29 08:13:34;;;;;;;42.92;22.00;;;;;;;6.29;100.00;101050.16;4943458;28;20187;-48
2022/01/29 08:16:00;;;;;;;54.97;22.40;;;;;;;6.34;100.00;101045.63;4951241;29;20262;-48
2022/01/29 08:18:25;;;;;;;41.88;21.70;;;;;;;6.34;100.00;101077.56;4951068;28;20204;-45
2022/01/29 08:20:51;;;;;;;55.17;23.35;;;;;;;6.29;100.00;101052.81;4951756;28;20644;-49
2022/01/29 08:23:16;;;;;;;49.35;23.05;;;;;;;6.31;100.00;101051.03;4951107;28;20230;-48
2022/01/29 08:25:42;;;;;;;50.33;24.38;;;;;;;6.32;100.00;101051.00;4950642;28;20228;-46
2022/01/29 08:28:07;;;;;;;48.17;23.08;;;;;;;6.31;100.00;101043.91;4953922;28;20668;-48
2022/01/29 08:30:33;;;;;;;41.22;23.40;;;;;;;6.37;100.00;101035.81;4957617;28;20261;-47
2022/01/29 08:32:59;;;;;;;45.85;24.17;;;;;;;6.29;100.00;101027.09;4957722;28;20175;-47
2022/01/29 08:35:25;;;;;;;51.53;24.58;;;;;;;6.31;100.00;101008.44;4957490;28;20644;-48
2022/01/29 08:37:50;;;;;;;39.42;24.10;;;;;;;6.35;100.00;101008.34;4957503;28;20194;-46
2022/01/29 08:40:16;;;;;;;44.80;24.02;;;;;;;6.32;100.00;101004.88;4958150;28;20178;-45
2022/01/29 08:42:41;;;;;;;50.78;26.70;;;;;;;6.29;100.00;101015.56;4957775;28;20731;-45
2022/01/29 08:45:10;;;;;;;50.50;24.83;;;;;;;6.28;100.00;101013.84;4948179;28;20195;-44
2022/01/29 08:47:36;;;;;;;47.60;25.58;;;;;;;6.34;100.00;101022.59;4938905;29;20199;-42
2022/01/29 08:50:03;;;;;;;50.38;25.38;;;;;;;6.33;100.00;101022.59;4938672;29;20270;-45
2022/01/29 08:52:29;;;;;;;46.88;23.67;;;;;;;6.34;100.00;101019.03;4938580;29;20233;-45
2022/01/29 08:54:55;;;;;;;46.60;24.52;;;;;;;6.29;100.00;101019.09;4937738;29;20222;-44
2022/01/29 08:57:21;;;;;;;47.67;24.20;;;;;;;6.31;100.00;101019.09;4937911;29;20240;-44
2022/01/29 08:59:46;;;;;;;46.38;24.02;;;;;;;6.34;100.00;101009.28;4938814;29;20633;-43
2022/01/29 09:02:11;;;;;;;44.63;23.73;;;;;;;6.43;100.00;101002.91;4938125;29;20532;-44
2022/01/29 09:04:37;;;;;;;47.10;23.38;;;;;;;6.38;100.00;101007.41;4938205;29;20176;-42
2022/01/29 09:07:03;;;;;;;44.53;23.27;;;;;;;6.37;100.00;101003.88;4938379;29;20755;-46
2022/01/29 09:09:28;;;;;;;55.13;24.38;;;;;;;6.40;100.00;100989.66;4938950;29;20191;-45
2022/01/29 09:11:54;;;;;;;47.25;24.13;;;;;;;6.40;100.00;101014.47;4939122;29;20171;-44
2022/01/29 09:14:21;;;;;;;53.40;23.33;;;;;;;6.44;100.00;100982.50;4936792;29;20220;-45
2022/01/29 09:16:46;;;;;;;52.22;23.60;;;;;;;6.40;100.00;100973.69;4938286;29;20211;-46
2022/01/29 09:19:12;;;;;;;48.88;23.85;;;;;;;6.41;100.00;100975.44;4937239;29;20170;-46
2022/01/29 09:21:38;;;;;;;53.10;24.02;;;;;;;6.48;100.00;100976.22;4938584;29;20175;-46
2022/01/29 09:24:04;;;;;;;50.20;24.02;;;;;;;6.39;100.00;100998.56;4938327;29;20272;-46
2022/01/29 09:26:30;;;;;;;52.53;24.08;;;;;;;6.42;100.00;100979.84;4938282;29;20603;-44
2022/01/29 09:28:55;;;;;;;48.10;24.10;;;;;;;6.43;100.00;100970.97;4938481;29;20191;-44
2022/01/29 09:31:21;;;;;;;49.13;22.27;;;;;;;6.48;100.00;100965.56;4938053;29;20175;-46
2022/01/29 09:33:47;;;;;;;46.80;21.73;;;;;;;6.48;100.00;100977.06;4937953;29;20179;-46
2022/01/29 09:36:12;;;;;;;49.78;22.52;;;;;;;6.44;100.00;100940.78;4938395;29;20167;-44
2022/01/29 09:38:37;;;;;;;47.38;21.98;;;;;;;6.42;100.00;100953.25;4939435;29;20214;-46
2022/01/29 09:41:04;;;;;;;43.90;21.77;;;;;;;6.47;100.00;100962.03;4934894;29;20176;-44
2022/01/29 09:43:32;;;;;;;43.33;21.50;;;;;;;6.52;100.00;100951.28;4933845;29;20235;-43
2022/01/29 09:45:58;;;;;;;43.28;20.10;;;;;;;6.53;100.00;100937.94;4934229;29;20218;-45
2022/01/29 09:48:27;;;;;;;44.85;20.08;;;;;;;6.53;100.00;100924.63;4933587;29;20282;-44
2022/01/29 09:50:53;;;;;;;40.38;20.65;;;;;;;6.53;100.00;100910.44;4934091;29;20184;-43
2022/01/29 09:53:19;;;;;;;36.08;19.35;;;;;;;6.56;100.00;100910.41;4934066;29;20773;-47
2022/01/29 09:55:46;;;;;;;41.10;20.35;;;;;;;6.60;100.00;100904.06;4933930;29;20200;-46
2022/01/29 09:58:12;;;;;;;45.45;20.15;;;;;;;6.58;100.00;100896.16;4933890;29;20235;-45
2022/01/29 10:00:38;;;;;;;41.70;18.85;;;;;;;6.60;100.00;100904.97;4933868;29;20199;-44
2022/01/29 10:03:09;;;;;;;37.33;18.23;;;;;;;6.55;100.00;100893.53;4933478;29;20203;-45
2022/01/29 10:05:37;;;;;;;35.85;17.63;;;;;;;6.64;100.00;100878.28;4931118;29;20187;-43
2022/01/29 10:08:03;;;;;;;31.13;16.67;;;;;;;6.58;100.00;100876.59;4931909;29;20552;-45
2022/01/29 10:10:29;;;;;;;36.60;16.23;;;;;;;6.67;100.00;100870.22;4933942;29;20274;-45
2022/01/29 10:12:54;;;;;;;31.33;16.45;;;;;;;6.65;100.00;100850.72;4934495;29;20259;-47
2022/01/29 10:15:22;;;;;;;31.77;15.68;;;;;;;6.59;100.00;100844.66;4934446;29;20175;-44
2022/01/29 10:17:54;;;;;;;36.40;14.98;;;;;;;6.66;100.00;100847.19;4934419;29;20207;-46
2022/01/29 10:20:26;;;;;;;25.60;14.18;;;;;;;6.63;100.00;100841.94;4935027;29;20230;-43
2022/01/29 10:22:56;;;;;;;24.38;14.88;;;;;;;6.66;100.00;100840.06;4941328;29;20207;-46
2022/01/29 10:25:25;;;;;;;30.63;15.18;;;;;;;6.64;100.00;100822.38;4933252;29;20536;-46
2022/01/29 10:28:09;;;;;;;31.80;13.93;;;;;;;6.62;100.00;100825.06;4934213;29;20592;-45
2022/01/29 10:30:50;;;;;;;29.20;14.98;;;;;;;6.65;100.00;100832.09;4934639;29;20172;-45
2022/01/29 10:33:32;;;;;;;30.45;13.93;;;;;;;6.69;100.00;100809.81;4934452;29;20270;-46
2022/01/29 10:36:01;;;;;;;29.38;15.13;;;;;;;6.68;100.00;100821.41;4934136;29;20254;-44
2022/01/29 10:38:50;;;;;;;26.75;14.63;;;;;;;6.68;100.00;100821.41;4934414;29;20266;-46
2022/01/29 10:41:31;;;;;;;30.25;15.38;;;;;;;6.64;100.00;100809.06;4934054;29;20187;-45
2022/01/29 10:44:14;;;;;;;34.03;15.88;;;;;;;6.69;100.00;100778.78;4936165;29;20233;-47
2022/01/29 10:46:49;;;;;;;33.65;16.55;;;;;;;6.66;100.00;100793.94;4952790;28;20288;-47
2022/01/29 10:49:22;;;;;;;38.03;17.65;;;;;;;6.68;100.00;100776.13;4953242;28;20550;-44
2022/01/29 10:51:58;;;;;;;35.40;17.08;;;;;;;6.65;100.00;100771.75;4952653;28;20194;-44
2022/01/29 10:54:24;;;;;;;34.65;17.27;;;;;;;6.67;100.00;100761.97;4949929;28;20167;-44
2022/01/29 10:56:59;;;;;;;39.15;18.13;;;;;;;6.69;100.00;100743.25;4953045;28;20297;-47
2022/01/29 10:59:27;;;;;;;41.55;17.88;;;;;;;6.74;100.00;100726.28;4936379;29;20249;-45
2022/01/29 11:01:56;;;;;;;35.13;17.02;;;;;;;6.74;100.00;100744.06;4933829;29;20628;-45
2022/01/29 11:04:22;;;;;;;36.25;17.35;;;;;;;6.74;100.00;100758.22;4933360;29;20208;-46
2022/01/29 11:06:51;;;;;;;41.13;17.08;;;;;;;6.73;100.00;100750.28;4933021;29;20218;-43
2022/01/29 11:09:17;;;;;;;39.95;17.25;;;;;;;6.70;100.00;100737.03;4932911;29;20183;-45
2022/01/29 11:11:45;;;;;;;34.45;16.08;;;;;;;6.76;100.00;100752.88;4932554;29;20171;-44
2022/01/29 11:14:16;;;;;;;36.28;16.25;;;;;;;6.80;100.00;100767.88;4932696;29;20175;-47
2022/01/29 11:16:43;;;;;;;32.85;15.60;;;;;;;6.89;100.00;100778.31;4932840;29;20260;-44
2022/01/29 11:19:09;;;;;;;31.52;15.48;;;;;;;6.84;100.00;100779.31;4933703;29;20644;-45
2022/01/29 11:21:36;;;;;;;35.38;14.50;;;;;;;6.82;100.00;100782.00;4933471;29;20175;-47
2022/01/29 11:24:06;;;;;;;36.65;14.07;;;;;;;6.86;100.00;100782.81;4932959;29;20197;-44